createdAt,value
2018-12-14T00:01:05.098Z,16.73
2018-12-14T00:03:40.828Z,17.67
2018-12-14T00:06:10.852Z,15.67
2018-12-14T00:08:45.141Z,16.30
2018-12-14T00:11:18.965Z,15.37
2018-12-14T00:13:54.198Z,15.27
2018-12-14T00:16:25.446Z,17.40
2018-12-14T00:19:04.162Z,16.80
2018-12-14T00:21:37.783Z,16.67
2018-12-14T00:24:07.436Z,18.17
2018-12-14T00:26:36.870Z,20.73
2018-12-14T00:29:06.092Z,20.53
2018-12-14T00:31:36.892Z,19.87
2018-12-14T00:34:23.733Z,21.20
2018-12-14T00:37:00.166Z,19.13
2018-12-14T00:39:31.627Z,17.17
2018-12-14T00:42:02.526Z,17.50
2018-12-14T00:44:32.581Z,17.00
2018-12-14T00:47:02.245Z,16.30
2018-12-14T00:49:40.099Z,15.87
2018-12-14T00:52:09.761Z,13.97
2018-12-14T00:54:38.872Z,14.03
2018-12-14T00:57:08.559Z,13.47
2018-12-14T00:59:37.885Z,13.37
2018-12-14T01:02:10.959Z,12.70
2018-12-14T01:04:40.497Z,12.23
2018-12-14T01:07:10.897Z,12.37
2018-12-14T01:09:41.062Z,12.20
2018-12-14T01:12:10.238Z,13.53
2018-12-14T01:14:39.707Z,12.47
2018-12-14T01:17:10.326Z,12.30
2018-12-14T01:22:20.597Z,13.03
2018-12-14T01:24:50.674Z,12.90
2018-12-14T01:27:24.164Z,13.57
2018-12-14T01:30:02.101Z,13.73
2018-12-14T01:32:39.300Z,13.00
2018-12-14T01:35:20.574Z,13.60
2018-12-14T01:37:52.123Z,15.33
2018-12-14T01:40:21.773Z,17.47
2018-12-14T01:42:52.854Z,15.47
2018-12-14T01:45:22.593Z,14.80
2018-12-14T01:47:58.228Z,12.93
2018-12-14T01:50:32.645Z,14.20
2018-12-14T01:53:06.089Z,13.97
2018-12-14T01:55:36.220Z,14.17
2018-12-14T01:58:07.161Z,14.90
2018-12-14T02:00:36.895Z,15.87
2018-12-14T02:03:06.791Z,17.40
2018-12-14T02:05:36.866Z,20.63
2018-12-14T02:08:11.493Z,24.63
2018-12-14T02:10:42.661Z,26.47
2018-12-14T02:13:15.737Z,27.27
2018-12-14T02:15:51.942Z,25.70
2018-12-14T02:18:26.741Z,19.50
2018-12-14T02:20:56.045Z,15.80
2018-12-14T02:23:37.664Z,15.50
2018-12-14T02:26:16.681Z,14.17
2018-12-14T02:28:49.277Z,13.97
2018-12-14T02:31:19.943Z,13.73
2018-12-14T02:33:52.381Z,15.00
2018-12-14T02:36:22.893Z,15.17
2018-12-14T02:38:53.422Z,15.97
2018-12-14T02:41:30.226Z,15.70
2018-12-14T02:44:00.138Z,16.87
2018-12-14T02:46:30.283Z,16.13
2018-12-14T02:49:14.075Z,16.20
2018-12-14T02:51:46.830Z,16.97
2018-12-14T02:54:16.872Z,16.20
2018-12-14T02:56:47.748Z,16.33
2018-12-14T02:59:20.943Z,15.37
2018-12-14T03:01:56.951Z,15.40
2018-12-14T03:04:26.650Z,17.67
2018-12-14T03:06:56.109Z,17.70
2018-12-14T03:09:27.424Z,17.37
2018-12-14T03:12:03.117Z,17.73
2018-12-14T03:14:36.048Z,17.17
2018-12-14T03:17:06.713Z,17.20
2018-12-14T03:19:36.368Z,17.37
2018-12-14T03:22:06.258Z,18.43
2018-12-14T03:24:35.608Z,19.37
2018-12-14T03:27:04.913Z,18.40
2018-12-14T03:29:35.461Z,19.20
2018-12-14T03:32:06.884Z,18.20
2018-12-14T03:34:36.056Z,18.63
2018-12-14T03:37:10.732Z,17.03
2018-12-14T03:39:40.369Z,18.20
2018-12-14T03:42:09.449Z,18.23
2018-12-14T03:44:38.588Z,18.37
2018-12-14T03:47:08.772Z,19.57
2018-12-14T03:49:37.885Z,19.00
2018-12-14T03:52:09.406Z,17.83
2018-12-14T03:54:46.724Z,18.30
2018-12-14T03:57:17.331Z,18.63
2018-12-14T03:59:47.947Z,18.40
2018-12-14T04:02:17.250Z,18.20
2018-12-14T04:04:54.599Z,18.67
2018-12-14T04:07:29.937Z,17.47
2018-12-14T04:09:58.928Z,18.53
2018-12-14T04:12:28.707Z,18.50
2018-12-14T04:15:03.285Z,18.80
2018-12-14T04:17:36.944Z,20.07
2018-12-14T04:20:06.402Z,18.90
2018-12-14T04:22:36.372Z,19.60
2018-12-14T04:25:10.623Z,19.97
2018-12-14T04:27:43.002Z,19.10
2018-12-14T04:30:17.816Z,19.90
2018-12-14T04:32:49.821Z,20.63
2018-12-14T04:35:25.366Z,20.80
2018-12-14T04:37:54.513Z,20.40
2018-12-14T04:40:23.561Z,20.90
2018-12-14T04:42:52.774Z,20.40
2018-12-14T04:48:16.290Z,18.40
2018-12-14T04:50:45.657Z,18.53
2018-12-14T04:53:23.411Z,16.87
2018-12-14T04:55:55.938Z,17.43
2018-12-14T04:58:25.254Z,17.10
2018-12-14T05:00:54.874Z,19.03
2018-12-14T05:03:26.649Z,16.93
2018-12-14T05:05:56.037Z,18.03
2018-12-14T05:08:27.110Z,18.20
2018-12-14T05:10:56.643Z,17.50
2018-12-14T05:13:31.016Z,18.50
2018-12-14T05:16:00.490Z,18.90
2018-12-14T05:18:29.668Z,19.33
2018-12-14T05:21:05.864Z,20.30
2018-12-14T05:23:36.606Z,21.33
2018-12-14T05:26:05.988Z,20.67
2018-12-14T05:28:35.023Z,22.13
2018-12-14T05:31:04.171Z,21.73
2018-12-14T05:33:33.379Z,22.13
2018-12-14T05:36:07.055Z,22.13
2018-12-14T05:38:36.176Z,22.53
2018-12-14T05:41:05.850Z,23.60
2018-12-14T05:43:36.691Z,23.60
2018-12-14T05:46:06.636Z,24.87
2018-12-14T05:48:35.895Z,23.53
2018-12-14T05:51:06.361Z,23.43
2018-12-14T05:53:36.295Z,22.00
2018-12-14T05:56:05.881Z,22.73
2018-12-14T05:58:40.899Z,24.37
2018-12-14T06:01:11.293Z,22.37
2018-12-14T06:03:40.422Z,23.37
2018-12-14T06:06:09.620Z,24.07
2018-12-14T06:08:38.789Z,22.83
2018-12-14T06:11:09.313Z,22.93
2018-12-14T06:13:45.921Z,23.53
2018-12-14T06:16:17.925Z,22.83
2018-12-14T06:18:53.904Z,23.50
2018-12-14T06:21:30.318Z,22.43
2018-12-14T06:24:05.874Z,23.73
2018-12-14T06:26:37.868Z,22.67
2018-12-14T06:29:07.235Z,21.97
2018-12-14T06:31:40.172Z,23.30
2018-12-14T06:34:09.544Z,20.23
2018-12-14T06:36:41.802Z,20.53
2018-12-14T06:39:16.918Z,20.37
2018-12-14T06:41:53.897Z,19.37
2018-12-14T06:44:24.616Z,20.37
2018-12-14T06:46:53.680Z,19.90
2018-12-14T06:49:26.896Z,19.83
2018-12-14T06:51:59.779Z,21.43
2018-12-14T06:54:30.078Z,20.23
2018-12-14T06:56:59.573Z,21.57
2018-12-14T22:11:02.469Z,26.63
2018-12-14T22:13:43.388Z,25.50
2018-12-14T22:19:01.442Z,26.30
2018-12-14T22:21:39.766Z,24.97
2018-12-14T22:24:10.478Z,25.10
2018-12-14T22:26:58.270Z,26.27
2018-12-14T22:29:31.627Z,25.80
2018-12-14T22:32:06.196Z,25.53
2018-12-14T22:34:44.898Z,25.07
2018-12-14T22:37:25.051Z,25.03
2018-12-14T22:40:03.543Z,23.87
2018-12-14T22:42:33.922Z,25.77
2018-12-14T22:45:06.340Z,25.47
2018-12-14T22:47:46.046Z,24.87
2018-12-14T22:50:22.979Z,26.10
2018-12-14T22:52:53.575Z,25.43
2018-12-14T22:55:26.948Z,25.03
2018-12-14T22:58:00.218Z,24.63
2018-12-14T23:00:37.038Z,23.70
2018-12-14T23:03:09.451Z,25.43
2018-12-14T23:05:41.463Z,25.30
2018-12-14T23:08:19.564Z,24.77
2018-12-14T23:10:51.447Z,24.73
2018-12-14T23:13:22.203Z,24.33
2018-12-14T23:15:52.786Z,23.73
2018-12-14T23:18:27.410Z,23.53
2018-12-14T23:20:58.630Z,22.57
2018-12-14T23:23:30.148Z,23.47
2018-12-14T23:26:03.723Z,22.80
2018-12-14T23:28:46.523Z,23.13
2018-12-14T23:31:20.564Z,23.00
2018-12-14T23:34:02.271Z,21.27
2018-12-14T23:36:31.999Z,21.87
2018-12-14T23:39:03.756Z,22.67
2018-12-14T23:41:33.289Z,22.67
2018-12-14T23:44:03.832Z,22.10
2018-12-14T23:46:38.410Z,21.03
2018-12-14T23:49:10.762Z,21.93
2018-12-14T23:51:45.864Z,21.03
2018-12-14T23:54:21.131Z,22.10
2018-12-14T23:57:00.734Z,21.50
2018-12-14T23:59:29.920Z,20.40
